Time;durP1;ratioP1;P1;durP2;ratioP2;P2;SDS_P1;SDS_P2;PMS_P1;PMS_P2;Temp;Humidity;BMP_temperature;BMP_pressure;BME280_temperature;BME280_humidity;BME280_pressure;Samples;Min_cycle;Max_cycle;Signal;HPM_P1;HPM_P2
2023/12/05 00:00:56;;;;;;;2.70;1.80;;;17.50;56.40;;;;;;6153898;23;20458;-84
2023/12/05 00:03:21;;;;;;;3.97;2.20;;;17.50;56.70;;;;;;6127805;23;20155;-84
2023/12/05 00:05:47;;;;;;;3.15;1.90;;;17.50;56.30;;;;;;6128568;23;20230;-84
2023/12/05 00:08:15;;;;;;;3.53;1.90;;;17.50;56.50;;;;;;6153297;23;20497;-84
2023/12/05 00:10:41;;;;;;;5.72;2.20;;;17.50;56.50;;;;;;6120504;23;20225;-83
2023/12/05 00:13:07;;;;;;;4.32;2.00;;;17.60;56.60;;;;;;6127662;23;20296;-84
2023/12/05 00:15:33;;;;;;;8.02;2.30;;;17.50;56.60;;;;;;6168511;23;20202;-84
2023/12/05 00:17:59;;;;;;;4.80;2.28;;;17.50;56.90;;;;;;6156597;23;20482;-84
2023/12/05 00:20:25;;;;;;;2.45;1.90;;;17.50;56.60;;;;;;6156180;23;20162;-84
2023/12/05 00:22:51;;;;;;;3.60;2.08;;;17.50;56.80;;;;;;6156742;23;20139;-84
2023/12/05 00:25:18;;;;;;;4.40;2.10;;;17.50;56.70;;;;;;6157198;23;20470;-84
2023/12/05 00:27:45;;;;;;;5.70;2.20;;;17.40;56.70;;;;;;6133518;23;20150;-84
2023/12/05 00:30:11;;;;;;;3.92;1.90;;;17.40;56.50;;;;;;6158382;23;20159;-85
2023/12/05 00:32:37;;;;;;;3.35;2.00;;;17.40;56.70;;;;;;6132726;23;20170;-84
2023/12/05 00:35:03;;;;;;;4.07;2.40;;;17.40;56.70;;;;;;6158103;23;20131;-84
2023/12/05 00:37:29;;;;;;;4.10;2.13;;;17.40;56.40;;;;;;6157993;23;20147;-84
2023/12/05 00:39:54;;;;;;;4.72;2.10;;;17.40;56.80;;;;;;6133460;23;20588;-84
2023/12/05 00:42:20;;;;;;;3.53;1.85;;;17.40;56.40;;;;;;6184313;23;20747;-84
2023/12/05 00:44:46;;;;;;;3.83;2.03;;;17.40;56.80;;;;;;6157845;23;20509;-84
2023/12/05 00:47:12;;;;;;;3.33;2.00;;;17.40;56.60;;;;;;6067916;23;1422464;-84
2023/12/05 00:49:38;;;;;;;5.38;2.33;;;17.40;56.70;;;;;;6126976;23;20202;-84
2023/12/05 00:52:04;;;;;;;2.72;2.10;;;17.40;56.50;;;;;;6153104;23;20210;-84
2023/12/05 00:54:29;;;;;;;3.58;1.90;;;17.50;56.80;;;;;;6152017;23;20135;-83
2023/12/05 00:56:57;;;;;;;4.38;2.33;;;17.40;56.80;;;;;;6153431;23;20139;-84
2023/12/05 00:59:23;;;;;;;2.67;1.95;;;17.40;56.70;;;;;;6123788;23;20207;-85
2023/12/05 01:01:51;;;;;;;3.20;2.08;;;17.40;56.70;;;;;;6104091;23;20166;-84
2023/12/05 01:04:18;;;;;;;3.05;2.10;;;17.40;56.80;;;;;;6158360;23;20138;-84
2023/12/05 01:06:44;;;;;;;5.00;2.10;;;17.40;56.60;;;;;;6184267;23;20133;-84
2023/12/05 01:09:10;;;;;;;4.15;2.10;;;17.30;56.80;;;;;;6183828;23;20131;-85
2023/12/05 01:11:39;;;;;;;3.03;2.00;;;17.30;56.60;;;;;;6133795;23;20518;-85
2023/12/05 01:14:05;;;;;;;5.03;2.15;;;17.30;56.80;;;;;;6158069;23;20135;-84
2023/12/05 01:16:31;;;;;;;4.30;2.10;;;17.30;56.70;;;;;;6186540;23;20234;-84
2023/12/05 01:18:56;;;;;;;4.13;2.00;;;17.30;56.70;;;;;;6160189;23;20195;-86
2023/12/05 01:21:22;;;;;;;3.22;1.80;;;17.30;56.50;;;;;;6159587;23;20225;-84
2023/12/05 01:23:48;;;;;;;5.22;1.98;;;17.30;56.70;;;;;;6135465;23;20237;-84
2023/12/05 01:26:14;;;;;;;4.78;2.13;;;17.40;56.70;;;;;;6160112;23;20165;-86
2023/12/05 01:28:40;;;;;;;2.88;2.00;;;17.30;56.60;;;;;;6135277;23;20455;-84
2023/12/05 01:31:06;;;;;;;3.50;2.30;;;17.30;56.80;;;;;;6159555;23;20185;-85
2023/12/05 01:33:32;;;;;;;3.30;2.00;;;17.30;56.40;;;;;;6135445;23;20212;-84
2023/12/05 01:36:01;;;;;;;3.72;2.08;;;17.30;56.70;;;;;;6159416;23;20131;-84
2023/12/05 01:38:27;;;;;;;4.63;2.03;;;17.30;56.60;;;;;;6110914;23;20151;-84
2023/12/05 01:40:53;;;;;;;5.13;2.10;;;17.30;56.70;;;;;;6133521;23;20151;-84
2023/12/05 01:43:18;;;;;;;5.20;1.98;;;17.30;56.70;;;;;;6134367;23;20590;-84
2023/12/05 01:45:44;;;;;;;3.95;1.90;;;17.30;56.70;;;;;;6133524;23;20185;-84
2023/12/05 01:48:10;;;;;;;3.30;2.25;;;17.30;56.70;;;;;;6133857;23;20575;-84
2023/12/05 01:50:36;;;;;;;2.25;1.92;;;17.30;56.70;;;;;;6156543;23;21045;-84
2023/12/05 01:53:04;;;;;;;3.00;2.00;;;17.30;56.60;;;;;;6157053;23;20501;-84
2023/12/05 01:55:30;;;;;;;4.38;2.00;;;17.30;56.60;;;;;;6136579;23;20230;-84
2023/12/05 01:57:56;;;;;;;3.53;2.28;;;17.30;56.40;;;;;;6102838;23;20464;-84
2023/12/05 02:00:23;;;;;;;3.60;2.05;;;17.30;56.70;;;;;;6104455;23;20151;-84
2023/12/05 02:02:49;;;;;;;4.88;2.17;;;17.30;56.50;;;;;;6106092;23;20132;-84
2023/12/05 02:05:15;;;;;;;4.45;2.03;;;17.30;56.40;;;;;;6104143;23;20615;-84
2023/12/05 02:07:41;;;;;;;4.35;2.08;;;17.30;56.70;;;;;;6074889;23;20231;-84
2023/12/05 02:10:08;;;;;;;5.47;2.17;;;17.30;56.70;;;;;;6102574;23;20572;-84
2023/12/05 02:12:37;;;;;;;4.30;2.00;;;17.30;56.60;;;;;;6120649;23;20637;-84
2023/12/05 02:17:54;;;;;;;5.60;2.55;;;17.30;56.50;;;;;;6182368;23;20206;-84
2023/12/05 02:20:26;;;;;;;4.40;2.20;;;17.30;56.70;;;;;;6157057;23;20566;-84
2023/12/05 02:23:16;;;;;;;2.75;2.25;;;17.30;56.70;;;;;;6159250;23;20166;-84
2023/12/05 02:26:16;;;;;;;4.07;1.90;;;17.20;56.70;;;;;;6137571;23;20154;-84
2023/12/05 02:31:08;;;;;;;3.17;1.90;;;17.20;56.70;;;;;;6184147;23;20202;-83
2023/12/05 02:33:33;;;;;;;2.83;2.00;;;17.20;56.40;;;;;;6158035;23;20618;-84
2023/12/05 02:36:20;;;;;;;4.53;2.10;;;17.30;56.70;;;;;;6158647;23;20135;-84
2023/12/05 02:39:12;;;;;;;2.78;2.05;;;17.20;56.40;;;;;;6157247;23;20139;-85
2023/12/05 02:41:38;;;;;;;3.35;2.38;;;17.20;56.50;;;;;;6136633;23;20150;-84
2023/12/05 02:44:07;;;;;;;3.20;2.10;;;17.20;56.50;;;;;;6158656;23;20139;-85
2023/12/05 02:46:33;;;;;;;2.70;2.00;;;17.30;56.70;;;;;;6134097;23;20182;-84
2023/12/05 02:48:59;;;;;;;2.25;1.80;;;17.20;56.40;;;;;;6157645;23;20193;-84
2023/12/05 02:51:25;;;;;;;4.78;2.13;;;17.20;56.50;;;;;;6133058;23;20162;-84
2023/12/05 02:53:50;;;;;;;4.03;2.00;;;17.20;56.50;;;;;;6158150;23;20138;-83
2023/12/05 02:56:17;;;;;;;3.65;2.20;;;17.20;56.60;;;;;;6132139;23;20158;-83
2023/12/05 02:58:43;;;;;;;3.47;2.10;;;17.20;56.60;;;;;;6157741;23;20150;-83
2023/12/05 03:01:09;;;;;;;3.35;1.95;;;17.30;56.60;;;;;;6157305;23;20151;-83
2023/12/05 03:03:35;;;;;;;2.78;2.08;;;17.20;56.50;;;;;;6132196;23;20169;-84
2023/12/05 03:06:01;;;;;;;2.83;2.03;;;17.20;56.60;;;;;;6157322;23;20158;-84
2023/12/05 03:08:26;;;;;;;2.70;1.90;;;17.20;56.50;;;;;;6155825;23;20178;-84
2023/12/05 03:10:52;;;;;;;2.97;1.83;;;17.20;56.50;;;;;;6156099;23;20143;-84
2023/12/05 03:13:18;;;;;;;3.78;2.30;;;17.20;56.60;;;;;;6182800;23;20167;-84
2023/12/05 03:15:43;;;;;;;5.28;2.03;;;17.20;56.50;;;;;;6157593;23;20171;-84
2023/12/05 03:18:09;;;;;;;3.85;2.20;;;17.20;56.50;;;;;;6132584;23;20601;-84
2023/12/05 03:20:35;;;;;;;4.13;2.10;;;17.20;56.40;;;;;;6132681;23;20224;-84
2023/12/05 03:23:01;;;;;;;4.82;2.10;;;17.20;56.40;;;;;;6132290;23;20180;-84
2023/12/05 03:25:27;;;;;;;3.47;2.30;;;17.20;56.60;;;;;;6158284;23;20458;-84
2023/12/05 03:27:52;;;;;;;2.90;2.03;;;17.20;56.60;;;;;;6158251;23;20461;-83
2023/12/05 03:30:21;;;;;;;3.20;2.13;;;17.20;56.30;;;;;;6181689;23;20273;-83
2023/12/05 03:32:46;;;;;;;2.85;2.00;;;17.20;56.40;;;;;;6155917;23;20189;-84
2023/12/05 03:35:12;;;;;;;3.05;2.22;;;17.20;56.40;;;;;;6156856;23;20154;-84
2023/12/05 03:37:38;;;;;;;4.00;2.08;;;17.20;56.50;;;;;;6132321;23;20486;-84
2023/12/05 03:40:04;;;;;;;3.65;1.95;;;17.20;56.20;;;;;;6158096;23;20139;-84
2023/12/05 03:42:30;;;;;;;3.15;1.92;;;17.20;56.40;;;;;;6157187;23;20134;-83
2023/12/05 03:44:56;;;;;;;3.22;2.05;;;17.20;56.30;;;;;;6157497;23;20141;-85
2023/12/05 03:47:21;;;;;;;4.10;2.00;;;17.20;56.30;;;;;;6183612;23;20488;-83
2023/12/05 03:49:47;;;;;;;2.28;1.63;;;17.10;56.40;;;;;;6132608;23;20147;-83
2023/12/05 03:52:14;;;;;;;3.97;2.15;;;17.10;56.30;;;;;;6132783;23;20724;-84
2023/12/05 03:54:40;;;;;;;2.95;1.77;;;17.10;56.40;;;;;;6156218;23;20265;-83
2023/12/05 03:59:31;;;;;;;3.53;2.25;;;17.10;56.30;;;;;;6181878;23;20203;-84
2023/12/05 04:01:59;;;;;;;4.07;2.20;;;17.10;56.30;;;;;;6135865;23;20523;-84
2023/12/05 04:04:26;;;;;;;3.50;2.13;;;17.20;56.10;;;;;;6160638;23;20138;-84
2023/12/05 04:06:52;;;;;;;5.78;2.25;;;17.10;56.30;;;;;;6159408;23;20135;-84
2023/12/05 04:09:17;;;;;;;4.13;1.90;;;17.10;56.20;;;;;;6158861;23;20157;-83
2023/12/05 04:11:43;;;;;;;5.05;2.20;;;17.10;56.30;;;;;;6134867;23;20269;-84
2023/12/05 04:14:09;;;;;;;4.25;2.20;;;17.20;56.40;;;;;;6140685;23;20225;-84
2023/12/05 04:16:35;;;;;;;3.90;1.80;;;17.20;56.30;;;;;;6134815;23;20131;-83
2023/12/05 04:19:01;;;;;;;3.00;2.10;;;17.10;56.30;;;;;;6075478;23;20608;-84
2023/12/05 04:21:27;;;;;;;2.63;2.10;;;17.10;56.20;;;;;;6075624;23;20148;-84
2023/12/05 04:23:53;;;;;;;4.35;2.40;;;17.10;56.10;;;;;;6075373;23;20156;-84
2023/12/05 04:26:20;;;;;;;2.95;1.88;;;17.10;56.30;;;;;;6096441;23;20211;-84
2023/12/05 04:28:45;;;;;;;3.22;1.80;;;17.10;56.10;;;;;;6076429;23;20160;-84
2023/12/05 04:31:13;;;;;;;2.63;2.10;;;17.10;55.90;;;;;;6100004;23;20155;-84
2023/12/05 04:33:40;;;;;;;3.10;2.10;;;17.10;56.00;;;;;;6101119;23;20239;-83
2023/12/05 04:36:07;;;;;;;3.17;2.20;;;17.10;56.10;;;;;;6101844;23;20553;-84
2023/12/05 04:38:35;;;;;;;3.40;2.03;;;17.10;56.10;;;;;;6077002;23;20199;-83
2023/12/05 04:43:26;;;;;;;3.38;2.17;;;17.10;56.10;;;;;;6154011;23;20642;-85
2023/12/05 04:45:52;;;;;;;2.83;1.95;;;17.10;55.90;;;;;;6104788;23;20235;-84
2023/12/05 04:48:18;;;;;;;4.30;2.00;;;17.10;56.00;;;;;;6106362;23;20230;-85
2023/12/05 04:50:44;;;;;;;5.57;2.00;;;17.10;56.00;;;;;;6155968;23;20171;-84
2023/12/05 04:53:09;;;;;;;2.30;1.80;;;17.10;55.80;;;;;;6155113;23;20159;-84
2023/12/05 04:55:35;;;;;;;2.97;1.75;;;17.00;56.70;;;;;;6129670;23;20132;-84
2023/12/05 04:58:01;;;;;;;2.80;2.08;;;17.00;56.00;;;;;;6106171;23;20144;-85
2023/12/05 05:00:27;;;;;;;3.25;1.98;;;17.10;56.00;;;;;;6154724;23;20202;-84
2023/12/05 05:02:53;;;;;;;3.20;2.30;;;17.10;56.10;;;;;;6129849;23;20219;-84
2023/12/05 05:05:19;;;;;;;4.43;1.83;;;17.10;56.10;;;;;;6154172;23;20132;-84
2023/12/05 05:07:44;;;;;;;1.98;1.77;;;17.10;56.10;;;;;;6105737;23;20144;-83
2023/12/05 05:10:10;;;;;;;2.72;2.10;;;17.10;56.10;;;;;;6129059;23;20238;-84
2023/12/05 05:12:36;;;;;;;3.30;2.00;;;17.10;56.20;;;;;;6130177;23;20167;-84
2023/12/05 05:15:04;;;;;;;3.35;1.88;;;17.10;56.00;;;;;;6154775;23;20150;-84
2023/12/05 05:17:30;;;;;;;3.72;2.22;;;17.00;56.00;;;;;;6092580;23;20527;-83
2023/12/05 05:19:56;;;;;;;4.30;2.20;;;17.10;56.00;;;;;;6093461;23;20228;-83
2023/12/05 05:22:28;;;;;;;3.50;2.05;;;17.00;56.10;;;;;;6067736;23;20496;-87
2023/12/05 05:24:57;;;;;;;3.10;1.98;;;17.10;56.00;;;;;;6092348;23;20145;-84
2023/12/05 05:27:23;;;;;;;2.97;1.95;;;17.00;56.00;;;;;;6070081;23;20601;-84
2023/12/05 05:29:48;;;;;;;2.42;2.10;;;17.00;55.90;;;;;;6092385;23;20168;-85
2023/12/05 05:32:14;;;;;;;2.17;1.98;;;17.00;55.80;;;;;;6069674;23;20677;-84
2023/12/05 05:34:40;;;;;;;2.97;1.90;;;17.00;55.90;;;;;;6045405;23;20145;-84
2023/12/05 05:37:06;;;;;;;2.90;1.80;;;17.00;55.90;;;;;;6070644;23;20153;-85
2023/12/05 05:39:32;;;;;;;2.25;1.80;;;17.00;55.90;;;;;;6094332;23;20573;-86
2023/12/05 05:41:57;;;;;;;3.63;2.20;;;17.00;55.90;;;;;;6068522;23;20193;-84
2023/12/05 05:44:23;;;;;;;3.03;1.88;;;17.00;56.00;;;;;;6046658;23;20224;-84
2023/12/05 05:46:51;;;;;;;2.60;2.10;;;17.00;56.00;;;;;;6094078;23;20141;-84
2023/12/05 05:49:17;;;;;;;3.05;2.05;;;17.00;56.50;;;;;;6094787;23;20155;-84
2023/12/05 05:51:53;;;;;;;3.28;2.10;;;17.00;55.80;;;;;;6153476;23;20209;-83
2023/12/05 05:54:19;;;;;;;3.60;1.98;;;17.10;56.00;;;;;;6129192;23;20136;-83
2023/12/05 05:56:44;;;;;;;3.58;2.25;;;17.00;55.80;;;;;;6157465;23;20194;-85
2023/12/05 05:59:10;;;;;;;2.35;1.90;;;17.10;56.00;;;;;;6158722;23;20147;-84
2023/12/05 06:01:36;;;;;;;2.63;1.80;;;17.00;55.80;;;;;;6157224;23;20189;-84
2023/12/05 06:04:02;;;;;;;3.25;2.03;;;17.00;55.80;;;;;;6183560;23;20202;-84
2023/12/05 06:06:32;;;;;;;2.38;2.08;;;17.00;55.80;;;;;;6157780;23;20139;-85
2023/12/05 06:08:58;;;;;;;2.58;2.10;;;17.00;55.80;;;;;;6127956;23;20218;-84
2023/12/05 06:11:24;;;;;;;2.60;2.08;;;17.00;55.80;;;;;;6154555;23;20156;-85
2023/12/05 06:13:49;;;;;;;2.40;2.00;;;17.00;55.90;;;;;;6159499;23;20202;-84
2023/12/05 06:16:17;;;;;;;3.70;2.35;;;17.00;55.70;;;;;;6137110;23;20151;-85
2023/12/05 06:18:43;;;;;;;3.85;1.98;;;17.00;55.80;;;;;;6136252;23;20154;-84
2023/12/05 06:21:10;;;;;;;3.30;2.20;;;17.00;55.90;;;;;;6162550;23;20135;-84
2023/12/05 06:23:38;;;;;;;2.30;1.92;;;17.00;55.40;;;;;;6136836;23;20204;-85
2023/12/05 06:26:05;;;;;;;2.58;1.77;;;17.00;55.40;;;;;;6132149;23;20214;-84
2023/12/05 06:28:30;;;;;;;2.50;2.00;;;17.00;55.60;;;;;;6113505;23;20155;-84
2023/12/05 06:30:56;;;;;;;3.42;1.95;;;17.00;55.60;;;;;;6112298;23;20212;-85
2023/12/05 06:33:23;;;;;;;4.93;2.10;;;17.00;55.50;;;;;;6137896;23;20179;-85
2023/12/05 06:35:49;;;;;;;3.63;2.33;;;17.00;55.50;;;;;;6160915;23;20189;-85
2023/12/05 06:38:15;;;;;;;3.97;1.95;;;17.00;55.50;;;;;;6109669;23;20177;-85
2023/12/05 06:40:41;;;;;;;2.20;1.83;;;17.00;55.70;;;;;;6108993;23;20497;-85
2023/12/05 06:43:07;;;;;;;3.17;2.00;;;17.00;55.60;;;;;;6111350;23;20533;-85
2023/12/05 06:45:34;;;;;;;2.80;2.10;;;17.00;55.80;;;;;;6135605;23;20147;-85
2023/12/05 06:48:01;;;;;;;2.95;2.17;;;17.00;55.50;;;;;;6135809;23;20542;-85
2023/12/05 06:50:28;;;;;;;2.40;2.00;;;17.00;55.50;;;;;;6160645;23;20559;-85
2023/12/05 06:52:57;;;;;;;2.60;2.00;;;17.00;55.60;;;;;;6159937;23;20763;-84
2023/12/05 06:55:26;;;;;;;2.60;1.80;;;17.00;55.70;;;;;;6135292;23;20143;-85
2023/12/05 06:57:52;;;;;;;3.08;2.08;;;17.00;55.70;;;;;;6136291;23;20259;-85
2023/12/05 07:00:18;;;;;;;3.00;2.00;;;17.00;55.60;;;;;;6111964;23;20142;-85
2023/12/05 07:02:45;;;;;;;2.78;1.92;;;17.00;55.70;;;;;;6162937;23;20166;-86
2023/12/05 07:05:12;;;;;;;3.28;1.92;;;17.00;55.50;;;;;;6113365;23;20143;-85
2023/12/05 07:07:37;;;;;;;2.88;1.85;;;17.00;55.50;;;;;;6164629;23;20131;-85
2023/12/05 07:10:05;;;;;;;2.25;1.90;;;17.00;55.10;;;;;;6139099;23;20482;-84
2023/12/05 07:12:32;;;;;;;3.30;2.00;;;17.00;55.20;;;;;;6139757;23;20174;-85
2023/12/05 07:14:58;;;;;;;3.05;1.88;;;17.10;54.20;;;;;;6114798;23;20147;-86
2023/12/05 07:20:10;;;;;;;3.50;2.10;;;17.20;54.20;;;;;;6189155;23;20205;-84
2023/12/05 07:22:36;;;;;;;2.40;1.65;;;17.20;54.20;;;;;;6139207;23;20157;-84
2023/12/05 07:25:02;;;;;;;2.38;1.88;;;17.20;54.10;;;;;;6137754;23;20206;-83
2023/12/05 07:27:29;;;;;;;2.42;1.90;;;17.20;54.20;;;;;;6140412;23;20149;-84
2023/12/05 07:30:16;;;;;;;2.42;1.98;;;17.20;54.20;;;;;;6138475;23;20151;-84
2023/12/05 07:32:43;;;;;;;2.50;1.70;;;17.20;54.40;;;;;;6134060;23;20218;-84
2023/12/05 07:35:09;;;;;;;3.40;1.88;;;17.20;53.50;;;;;;6084249;23;20152;-86
2023/12/05 07:40:12;;;;;;;2.63;1.90;;;17.20;54.00;;;;;;6186841;23;20233;-85
2023/12/05 07:45:50;;;;;;;3.33;2.20;;;17.20;54.20;;;;;;6183991;23;20209;-86
2023/12/05 07:48:24;;;;;;;2.60;1.90;;;17.20;53.90;;;;;;6161312;23;20155;-86
2023/12/05 07:50:50;;;;;;;2.85;1.95;;;17.20;54.10;;;;;;6044226;23;20153;-88
2023/12/05 07:53:47;;;;;;;2.42;1.80;;;17.30;54.00;;;;;;6052544;23;20232;-86
2023/12/05 07:56:24;;;;;;;2.45;2.03;;;17.30;53.80;;;;;;6068547;23;20597;-88
2023/12/05 07:58:56;;;;;;;2.25;2.05;;;17.20;52.70;;;;;;6050170;23;20153;-85
2023/12/05 08:02:25;;;;;;;3.22;2.00;;;17.20;53.70;;;;;;6050998;23;20157;-84
2023/12/05 08:05:16;;;;;;;2.65;1.90;;;17.30;53.20;;;;;;5916938;24;20155;-85
2023/12/05 08:08:13;;;;;;;2.45;1.80;;;17.20;53.50;;;;;;5952332;24;20159;-85
2023/12/05 08:11:11;;;;;;;2.97;2.03;;;17.30;53.20;;;;;;5923073;24;20206;-86
2023/12/05 08:31:27;;;;;;;2.00;1.52;;;17.30;53.50;;;;;;6187926;23;20217;-82
2023/12/05 08:33:58;;;;;;;3.95;2.03;;;17.30;53.90;;;;;;6140538;23;20771;-83
2023/12/05 08:36:26;;;;;;;2.25;1.70;;;17.30;54.20;;;;;;6069210;23;20262;-83
2023/12/05 08:39:00;;;;;;;2.88;1.90;;;17.20;54.30;;;;;;6018315;23;20213;-84
2023/12/05 08:41:29;;;;;;;2.72;2.00;;;17.30;54.10;;;;;;6023750;23;20150;-84
2023/12/05 08:44:09;;;;;;;2.10;1.90;;;17.30;54.30;;;;;;6021682;23;20153;-83
2023/12/05 08:46:38;;;;;;;2.30;1.90;;;17.30;53.40;;;;;;5964829;24;20674;-81
2023/12/05 08:49:08;;;;;;;2.38;1.60;;;17.40;52.40;;;;;;5908414;24;20156;-83
2023/12/05 08:51:48;;;;;;;4.13;2.00;;;17.40;53.90;;;;;;5910134;24;20715;-85
2023/12/05 08:54:30;;;;;;;;;;;;;;;;;;;;;
2023/12/05 08:56:56;;;;;;;3.03;1.70;;;17.30;53.50;;;;;;5900823;24;20675;-85
2023/12/05 08:59:22;;;;;;;2.13;1.80;;;17.40;53.50;;;;;;5924415;24;20195;-84
2023/12/05 09:01:48;;;;;;;2.38;1.80;;;17.40;53.30;;;;;;5972118;23;20559;-86
2023/12/05 09:04:14;;;;;;;2.03;1.55;;;17.40;53.80;;;;;;5937756;23;20474;-85
2023/12/05 09:06:42;;;;;;;2.42;1.88;;;17.40;53.80;;;;;;5938907;23;20246;-85
2023/12/05 09:09:09;;;;;;;2.10;1.70;;;17.30;53.60;;;;;;5938765;23;20143;-84
2023/12/05 09:11:38;;;;;;;2.45;1.70;;;17.40;53.10;;;;;;5942769;23;20515;-85
2023/12/05 09:14:05;;;;;;;2.20;1.90;;;17.40;53.40;;;;;;5988539;23;20143;-84
2023/12/05 09:16:32;;;;;;;2.33;1.70;;;17.40;53.20;;;;;;5985864;23;20190;-83
2023/12/05 09:18:58;;;;;;;2.75;1.77;;;17.40;53.30;;;;;;5989646;23;20150;-83
2023/12/05 09:21:24;;;;;;;3.15;1.90;;;17.50;52.20;;;;;;5967135;23;20189;-83
2023/12/05 09:23:51;;;;;;;3.42;1.80;;;17.50;52.20;;;;;;6013035;23;20238;-82
2023/12/05 09:26:18;;;;;;;1.92;1.63;;;17.40;52.80;;;;;;5988993;23;20161;-87
2023/12/05 09:28:45;;;;;;;2.00;1.63;;;17.40;52.30;;;;;;6071824;23;20271;-84
2023/12/05 09:31:14;;;;;;;2.97;1.63;;;17.50;52.20;;;;;;6078221;23;20195;-86
2023/12/05 09:33:43;;;;;;;2.72;1.65;;;17.50;52.30;;;;;;6147244;23;20210;-85
2023/12/05 09:36:20;;;;;;;2.65;1.92;;;17.50;52.00;;;;;;6162940;23;20136;-87
2023/12/05 09:38:47;;;;;;;2.33;1.80;;;17.50;52.70;;;;;;6115556;23;20158;-86
2023/12/05 09:41:23;;;;;;;2.65;1.80;;;17.60;52.40;;;;;;6164761;23;20131;-85
2023/12/05 09:43:54;;;;;;;2.67;1.60;;;17.60;52.00;;;;;;6162770;23;20142;-84
2023/12/05 09:46:21;;;;;;;2.08;1.73;;;17.70;51.20;;;;;;6187413;23;20159;-85
2023/12/05 09:48:48;;;;;;;2.88;1.92;;;17.70;51.70;;;;;;6133820;23;20213;-82
2023/12/05 09:51:15;;;;;;;2.00;1.75;;;17.60;52.70;;;;;;6159778;23;20142;-83
2023/12/05 09:53:41;;;;;;;3.28;1.90;;;17.60;52.00;;;;;;6159747;23;20174;-86
2023/12/05 09:56:12;;;;;;;5.53;1.92;;;17.60;52.20;;;;;;6171133;23;20139;-87
2023/12/05 09:58:45;;;;;;;2.35;1.67;;;17.60;52.30;;;;;;6111857;23;20152;-87
2023/12/05 10:01:15;;;;;;;4.43;1.90;;;17.60;51.90;;;;;;6077293;23;20148;-87
2023/12/05 10:03:43;;;;;;;1.70;1.52;;;17.60;52.10;;;;;;6082560;23;20182;-89
2023/12/05 10:06:14;;;;;;;1.73;1.48;;;17.60;51.90;;;;;;6079701;23;20183;-88
2023/12/05 10:08:43;;;;;;;1.95;1.70;;;17.70;52.40;;;;;;6059607;23;20151;-88
2023/12/05 10:11:12;;;;;;;3.45;1.40;;;17.70;53.00;;;;;;6083607;23;20239;-88
2023/12/05 10:13:40;;;;;;;1.65;1.50;;;17.60;52.60;;;;;;6057890;23;20634;-88
2023/12/05 10:21:17;;;;;;;2.75;1.80;;;17.60;53.00;;;;;;6160276;23;20192;-85
2023/12/05 10:23:43;;;;;;;5.35;1.50;;;17.60;53.90;;;;;;6187149;23;20135;-83
2023/12/05 10:26:09;;;;;;;2.95;1.70;;;17.60;53.60;;;;;;6138305;23;20150;-84
2023/12/05 10:28:49;;;;;;;1.83;1.50;;;17.60;53.00;;;;;;6161227;23;20923;-84
2023/12/05 10:31:16;;;;;;;2.00;1.58;;;17.60;52.70;;;;;;6161903;23;20150;-84
2023/12/05 10:33:44;;;;;;;4.05;1.80;;;17.60;52.90;;;;;;6163565;23;20172;-85
2023/12/05 10:36:11;;;;;;;2.05;1.52;;;17.70;51.90;;;;;;6166149;23;20202;-85
2023/12/05 10:38:41;;;;;;;4.60;1.67;;;17.70;52.30;;;;;;6164498;23;20131;-84
2023/12/05 10:41:09;;;;;;;2.20;1.60;;;17.60;52.50;;;;;;6162482;23;20146;-85
2023/12/05 10:43:34;;;;;;;2.25;1.50;;;17.70;52.70;;;;;;6137708;23;20259;-85
2023/12/05 10:46:03;;;;;;;2.50;1.38;;;17.70;52.40;;;;;;6137405;23;20142;-85
2023/12/05 10:48:30;;;;;;;2.03;1.30;;;17.70;52.30;;;;;;6160695;23;20235;-84
2023/12/05 10:50:57;;;;;;;1.70;1.60;;;17.70;52.10;;;;;;6160073;23;20154;-85
2023/12/05 10:53:24;;;;;;;2.53;1.60;;;17.70;52.30;;;;;;6137413;23;20194;-86
2023/12/05 10:55:50;;;;;;;3.42;1.63;;;17.70;52.10;;;;;;6134453;23;20281;-85
2023/12/05 10:58:17;;;;;;;2.97;1.52;;;17.80;52.10;;;;;;6160991;23;20139;-85
2023/12/05 11:00:43;;;;;;;2.47;1.70;;;17.80;52.00;;;;;;6135517;23;20225;-85
2023/12/05 11:03:09;;;;;;;2.65;1.48;;;17.80;52.10;;;;;;6159803;23;20174;-85
2023/12/05 11:05:35;;;;;;;2.53;1.40;;;17.80;52.70;;;;;;6139103;23;20151;-86
2023/12/05 11:08:04;;;;;;;1.88;1.52;;;17.80;51.90;;;;;;6136741;23;20147;-84
2023/12/05 11:10:29;;;;;;;5.55;1.45;;;17.80;51.40;;;;;;6160505;23;20162;-82
2023/12/05 11:13:10;;;;;;;;;;;;;;;;;;;;;
2023/12/05 11:15:37;;;;;;;5.45;1.48;;;17.80;52.50;;;;;;6145359;23;20178;-86
2023/12/05 11:18:17;;;;;;;3.88;1.48;;;17.70;52.20;;;;;;6165461;23;20131;-85
2023/12/05 11:21:08;;;;;;;3.38;1.55;;;17.70;52.10;;;;;;6165176;23;20213;-84
2023/12/05 11:24:00;;;;;;;3.72;1.88;;;17.80;52.60;;;;;;6159619;23;20232;-83
2023/12/05 11:26:44;;;;;;;2.33;1.52;;;17.70;52.80;;;;;;6159201;23;20135;-85
2023/12/05 11:29:27;;;;;;;3.28;1.60;;;17.70;53.00;;;;;;6160388;23;20135;-86
2023/12/05 11:34:47;;;;;;;4.05;1.60;;;17.70;53.20;;;;;;6168222;23;20228;-85
2023/12/05 11:37:34;;;;;;;4.22;1.63;;;17.70;52.70;;;;;;6170279;23;20150;-85
2023/12/05 11:40:00;;;;;;;4.28;1.38;;;17.80;53.10;;;;;;6172435;23;20139;-87
2023/12/05 11:42:26;;;;;;;4.03;1.52;;;17.80;52.70;;;;;;6168709;23;20207;-86
2023/12/05 11:44:56;;;;;;;3.95;1.70;;;17.80;52.10;;;;;;6143714;23;20143;-86
2023/12/05 11:47:27;;;;;;;2.65;1.50;;;17.80;52.00;;;;;;6144434;23;20166;-85
2023/12/05 11:49:54;;;;;;;2.00;1.50;;;17.80;51.90;;;;;;6143384;23;20139;-86
2023/12/05 11:52:24;;;;;;;2.15;1.40;;;17.80;51.80;;;;;;6166872;23;20879;-85
2023/12/05 11:54:51;;;;;;;3.60;1.95;;;17.80;52.60;;;;;;6138315;23;20155;-85
2023/12/05 11:57:22;;;;;;;4.13;1.50;;;17.70;53.00;;;;;;6159801;23;20145;-86
2023/12/05 11:59:52;;;;;;;3.40;1.65;;;17.70;52.20;;;;;;6085471;23;20213;-84
2023/12/05 12:02:42;;;;;;;3.15;1.42;;;17.70;52.90;;;;;;6157548;23;20142;-86
2023/12/05 12:05:10;;;;;;;3.03;1.40;;;17.70;53.00;;;;;;6137446;23;20217;-85
2023/12/05 12:07:52;;;;;;;2.80;1.55;;;17.70;52.40;;;;;;6157860;23;20142;-86
2023/12/05 12:10:19;;;;;;;1.63;1.38;;;17.70;52.60;;;;;;6160570;23;20150;-85
2023/12/05 12:12:45;;;;;;;5.53;1.60;;;17.70;51.90;;;;;;6135243;23;20213;-86
2023/12/05 12:15:13;;;;;;;6.03;1.67;;;17.70;52.80;;;;;;6159161;23;20158;-85
2023/12/05 12:17:44;;;;;;;2.80;1.50;;;17.70;52.70;;;;;;6134266;23;20135;-85
2023/12/05 12:20:15;;;;;;;1.80;1.40;;;17.80;52.10;;;;;;6084312;23;20237;-85
2023/12/05 12:22:44;;;;;;;1.73;1.40;;;17.70;52.10;;;;;;6061224;23;20159;-85
2023/12/05 12:25:12;;;;;;;4.57;1.65;;;17.80;51.80;;;;;;6189735;23;20123;-85
2023/12/05 12:27:43;;;;;;;4.70;1.58;;;17.80;52.30;;;;;;6139337;23;20147;-85
2023/12/05 12:30:14;;;;;;;4.15;1.40;;;17.80;51.60;;;;;;6086812;23;20155;-85
2023/12/05 12:32:56;;;;;;;3.05;1.60;;;17.70;52.30;;;;;;6052264;23;20724;-85
2023/12/05 12:35:23;;;;;;;1.50;1.27;;;17.80;51.90;;;;;;6149658;23;20128;-85
2023/12/05 12:37:51;;;;;;;3.50;1.58;;;17.70;52.50;;;;;;6125894;23;20211;-85
2023/12/05 12:40:21;;;;;;;3.50;1.70;;;17.60;53.10;;;;;;6130281;23;20155;-86
2023/12/05 12:42:51;;;;;;;6.43;1.60;;;17.70;53.00;;;;;;6080612;23;20178;-85
2023/12/05 12:47:44;;;;;;;5.60;1.33;;;17.60;53.30;;;;;;6157098;23;20293;-85
2023/12/05 12:50:13;;;;;;;3.35;1.70;;;17.70;53.10;;;;;;6136130;23;20178;-86
2023/12/05 12:52:42;;;;;;;5.43;1.85;;;17.60;52.40;;;;;;6133082;23;20190;-85
2023/12/05 12:55:09;;;;;;;4.38;1.50;;;17.70;52.80;;;;;;6158841;23;20170;-86
2023/12/05 12:57:35;;;;;;;6.18;1.65;;;17.60;52.50;;;;;;6160013;23;20158;-85
2023/12/05 13:00:04;;;;;;;6.78;1.70;;;17.60;53.00;;;;;;6135707;23;20154;-85
2023/12/05 13:02:32;;;;;;;3.60;1.85;;;17.60;53.10;;;;;;6163781;23;20135;-85
2023/12/05 13:04:58;;;;;;;2.83;1.33;;;17.70;52.50;;;;;;6135970;23;20237;-85
2023/12/05 13:07:25;;;;;;;4.63;1.40;;;17.70;52.60;;;;;;6135703;23;20150;-84
2023/12/05 13:09:51;;;;;;;3.85;1.50;;;17.70;51.40;;;;;;6160953;23;20581;-85
2023/12/05 13:12:20;;;;;;;4.50;1.60;;;17.70;52.20;;;;;;6159172;23;20181;-84
2023/12/05 13:14:48;;;;;;;4.60;1.60;;;17.70;52.80;;;;;;6130314;23;20147;-84
2023/12/05 13:17:14;;;;;;;4.45;1.90;;;17.70;52.20;;;;;;6133728;23;20578;-84
2023/12/05 13:19:40;;;;;;;5.38;1.70;;;17.80;52.60;;;;;;6158893;23;20134;-84
2023/12/05 13:22:06;;;;;;;4.78;1.70;;;17.60;52.80;;;;;;6184710;23;20139;-84
2023/12/05 13:24:32;;;;;;;2.13;1.05;;;17.70;52.20;;;;;;6158748;23;20567;-84
2023/12/05 13:26:58;;;;;;;3.00;1.40;;;17.70;52.30;;;;;;6184533;23;20546;-83
2023/12/05 13:29:25;;;;;;;1.60;1.20;;;17.70;52.70;;;;;;6135051;23;20206;-83
2023/12/05 13:31:51;;;;;;;2.15;1.60;;;17.70;52.20;;;;;;6136398;23;20151;-84
2023/12/05 13:34:17;;;;;;;8.25;1.55;;;17.70;52.20;;;;;;6164431;23;20131;-85
2023/12/05 13:36:43;;;;;;;3.55;1.50;;;17.60;52.00;;;;;;6138608;23;20146;-84
2023/12/05 13:39:09;;;;;;;2.40;1.30;;;17.70;51.40;;;;;;6162637;23;20135;-84
2023/12/05 13:41:36;;;;;;;3.47;1.40;;;17.70;52.20;;;;;;6137933;23;20562;-84